createdAt,value
2022-12-22T03:22:08.431Z,22.08
2022-12-22T03:23:12.568Z,22.09
2022-12-22T03:24:16.711Z,22.09
2022-12-22T03:25:20.857Z,22.09
2022-12-22T03:26:24.990Z,22.09
2022-12-22T03:27:29.139Z,22.08
2022-12-22T03:28:33.243Z,22.04
2022-12-22T03:29:37.381Z,22.07
2022-12-22T03:30:41.496Z,22.04
2022-12-22T03:31:45.651Z,22.01
2022-12-22T03:32:50.008Z,22.02
2022-12-22T03:33:54.102Z,22.03
2022-12-22T03:34:58.229Z,22
2022-12-22T03:36:02.364Z,21.97
2022-12-22T03:37:06.494Z,21.97
2022-12-22T03:38:10.621Z,21.95
2022-12-22T03:39:14.759Z,21.94
2022-12-22T03:40:18.841Z,21.97
2022-12-22T03:41:22.952Z,21.97
2022-12-22T03:42:27.059Z,22
2022-12-22T03:43:31.168Z,22
2022-12-22T03:44:35.302Z,22.01
2022-12-22T03:45:39.401Z,22.06
2022-12-22T03:46:43.617Z,22.08
2022-12-22T03:47:47.858Z,22.13
2022-12-22T03:48:51.995Z,22.16
2022-12-22T03:49:56.107Z,22.15
2022-12-22T03:51:00.206Z,22.18
2022-12-22T03:52:04.317Z,22.18
2022-12-22T03:53:08.441Z,22.24
2022-12-22T03:54:12.578Z,22.26
2022-12-22T03:55:16.737Z,22.27
2022-12-22T03:56:20.830Z,22.29
2022-12-22T03:57:24.941Z,22.34
2022-12-22T03:58:29.082Z,22.35
2022-12-22T03:59:33.241Z,22.34
2022-12-22T04:00:37.383Z,22.38
2022-12-22T04:01:41.739Z,22.4
2022-12-22T04:02:46.798Z,22.43
2022-12-22T04:03:51.407Z,22.41
2022-12-22T04:04:56.643Z,22.44
2022-12-22T04:06:01.134Z,22.45
2022-12-22T04:07:05.263Z,22.47
2022-12-22T04:08:09.383Z,22.48
2022-12-22T04:09:13.667Z,22.49
2022-12-22T04:10:17.816Z,22.52
2022-12-22T04:11:21.922Z,22.56
2022-12-22T04:12:26.035Z,22.57
2022-12-22T04:13:30.143Z,22.56
2022-12-22T04:14:35.023Z,22.61
2022-12-22T04:15:39.163Z,22.59
2022-12-22T04:16:43.357Z,22.61
2022-12-22T04:17:47.750Z,22.57
2022-12-22T04:18:51.868Z,22.54
2022-12-22T04:19:55.980Z,22.51
2022-12-22T04:21:00.098Z,22.51
2022-12-22T04:22:04.214Z,22.44
2022-12-22T04:23:08.373Z,22.45
2022-12-22T04:24:12.467Z,22.47
2022-12-22T04:25:16.583Z,22.46
2022-12-22T04:26:20.732Z,22.41
2022-12-22T04:27:24.944Z,22.4
2022-12-22T04:28:29.065Z,22.42
2022-12-22T04:29:33.295Z,22.44
2022-12-22T04:30:37.381Z,22.44
2022-12-22T04:31:41.516Z,22.41
2022-12-22T04:32:45.919Z,22.41
2022-12-22T04:33:50.016Z,22.48
2022-12-22T04:34:54.126Z,22.48
2022-12-22T04:35:58.237Z,22.52
2022-12-22T04:37:10.033Z,22.5
2022-12-22T04:38:21.060Z,22.55
2022-12-22T04:39:25.159Z,22.59
2022-12-22T04:40:29.292Z,22.61
2022-12-22T04:41:33.404Z,22.64
2022-12-22T04:42:37.531Z,22.66
2022-12-22T04:43:41.662Z,22.68
2022-12-22T04:44:45.818Z,22.73
2022-12-22T04:45:49.948Z,22.67
2022-12-22T04:46:54.262Z,22.66
2022-12-22T04:47:58.384Z,22.66
2022-12-22T04:49:02.521Z,22.66
2022-12-22T04:50:06.638Z,22.64
2022-12-22T04:51:10.771Z,22.64
2022-12-22T04:52:14.876Z,22.62
2022-12-22T04:53:19.010Z,22.6
2022-12-22T04:54:23.128Z,22.59
2022-12-22T04:55:27.215Z,22.55
2022-12-22T04:56:31.333Z,22.54
2022-12-22T04:57:40.177Z,22.52
2022-12-22T04:58:44.625Z,22.48
2022-12-22T04:59:48.748Z,22.5
2022-12-22T05:00:52.912Z,22.52
2022-12-22T05:01:57.338Z,22.56
2022-12-22T05:03:01.800Z,22.57
2022-12-22T05:04:06.335Z,22.56
2022-12-22T05:05:10.435Z,22.57
2022-12-22T05:06:14.560Z,22.58
2022-12-22T05:07:18.708Z,22.6
2022-12-22T05:08:22.821Z,22.59
2022-12-22T05:09:26.943Z,22.56
2022-12-22T05:10:31.042Z,22.56
2022-12-22T05:11:35.436Z,22.56
2022-12-22T05:12:39.549Z,22.55
2022-12-22T05:13:43.851Z,22.54
2022-12-22T05:14:47.949Z,22.55
2022-12-22T05:15:52.090Z,22.55
2022-12-22T05:16:56.283Z,22.59
2022-12-22T05:18:00.732Z,22.6
2022-12-22T05:19:04.873Z,22.62
2022-12-22T05:20:08.981Z,22.62
2022-12-22T05:21:13.465Z,22.6
2022-12-22T05:22:17.545Z,22.66
2022-12-22T05:23:21.664Z,22.66
2022-12-22T05:24:25.772Z,22.69
2022-12-22T05:25:34.636Z,22.73
2022-12-22T05:26:39.260Z,22.74
2022-12-22T05:27:43.808Z,22.75
2022-12-22T05:28:48.020Z,22.76
2022-12-22T05:29:52.139Z,22.77
2022-12-22T05:30:56.272Z,22.73
2022-12-22T05:32:00.557Z,22.76
2022-12-22T05:33:04.692Z,22.76
2022-12-22T05:34:08.801Z,22.77
2022-12-22T05:35:12.880Z,22.78
2022-12-22T05:36:16.986Z,22.73
2022-12-22T05:37:21.070Z,22.72
2022-12-22T05:38:25.180Z,22.71
2022-12-22T05:39:29.300Z,22.68
2022-12-22T05:40:33.396Z,22.67
2022-12-22T05:41:37.527Z,22.66
2022-12-22T05:42:41.630Z,22.63
2022-12-22T05:43:45.744Z,22.62
2022-12-22T05:44:49.842Z,22.6
2022-12-22T05:45:53.956Z,22.57
2022-12-22T05:46:58.250Z,22.56
2022-12-22T05:48:02.360Z,22.55
2022-12-22T05:49:06.468Z,22.56
2022-12-22T05:50:10.623Z,22.53
2022-12-22T05:51:14.736Z,22.51
2022-12-22T05:52:18.922Z,22.47
2022-12-22T05:53:23.038Z,22.47
2022-12-22T05:54:27.248Z,22.43
2022-12-22T05:55:31.366Z,22.44
2022-12-22T05:56:35.491Z,22.41
2022-12-22T05:57:39.682Z,22.42
2022-12-22T05:58:43.833Z,22.39
2022-12-22T05:59:47.912Z,22.4
2022-12-22T06:00:52.038Z,22.36
2022-12-22T06:01:56.136Z,22.37
2022-12-22T06:03:00.769Z,22.35
2022-12-22T06:04:05.517Z,22.34
2022-12-22T06:05:10.109Z,22.34
2022-12-22T06:06:14.230Z,22.32
2022-12-22T06:07:18.351Z,22.3
2022-12-22T06:08:22.476Z,22.27
2022-12-22T06:09:26.617Z,22.29
2022-12-22T06:10:30.721Z,22.28
2022-12-22T06:11:34.802Z,22.28
2022-12-22T06:12:38.930Z,22.25
2022-12-22T06:13:43.120Z,22.22
2022-12-22T06:14:47.217Z,22.2
2022-12-22T06:15:51.388Z,22.18
2022-12-22T06:16:55.692Z,22.17
2022-12-22T06:17:59.952Z,22.17
2022-12-22T06:19:04.059Z,22.16
2022-12-22T06:20:08.164Z,22.15
2022-12-22T06:21:12.375Z,22.14
2022-12-22T06:22:16.475Z,22.13
2022-12-22T06:23:20.590Z,22.12
2022-12-22T06:24:24.730Z,22.04
2022-12-22T06:25:28.845Z,22.09
2022-12-22T06:26:33.018Z,22.08
2022-12-22T06:27:37.134Z,22.07
2022-12-22T06:28:41.240Z,22.05
2022-12-22T06:29:45.396Z,22.05
2022-12-22T06:30:49.573Z,22.03
2022-12-22T06:31:53.866Z,22.01
2022-12-22T06:32:58.017Z,22.01
2022-12-22T06:34:02.122Z,22.01
2022-12-22T06:35:06.260Z,21.99
2022-12-22T06:36:10.373Z,21.99
2022-12-22T06:37:14.547Z,21.98
2022-12-22T06:38:18.683Z,21.97
2022-12-22T06:39:22.806Z,21.96
2022-12-22T06:40:26.931Z,21.94
2022-12-22T06:41:31.035Z,21.94
2022-12-22T06:42:35.160Z,21.94
2022-12-22T06:43:39.275Z,21.83
2022-12-22T06:44:43.387Z,21.79
2022-12-22T06:45:47.537Z,21.76
2022-12-22T06:46:51.808Z,21.91
2022-12-22T06:47:56.175Z,21.89
2022-12-22T06:49:00.292Z,21.88
2022-12-22T06:50:04.435Z,21.85
2022-12-22T06:51:08.568Z,21.84
2022-12-22T06:52:12.683Z,21.85
2022-12-22T06:53:16.792Z,21.84
2022-12-22T06:54:26.060Z,21.84
2022-12-22T06:55:30.455Z,21.83
2022-12-22T06:56:34.636Z,21.81
2022-12-22T06:57:38.752Z,21.81
2022-12-22T06:58:42.856Z,21.8
2022-12-22T06:59:49.784Z,21.79
2022-12-22T07:01:00.853Z,21.76
2022-12-22T07:02:05.177Z,21.77
2022-12-22T07:03:09.855Z,21.75
2022-12-22T07:04:14.814Z,21.75
2022-12-22T07:05:19.020Z,21.75
2022-12-22T07:06:23.163Z,21.73
2022-12-22T07:07:27.348Z,21.73
2022-12-22T07:08:31.959Z,21.72
2022-12-22T07:09:36.084Z,21.69
2022-12-22T07:10:40.201Z,21.7
2022-12-22T07:11:44.347Z,21.69
2022-12-22T07:12:48.456Z,21.69
2022-12-22T07:13:52.557Z,21.68
2022-12-22T07:14:56.652Z,21.66
2022-12-22T07:16:01.808Z,21.67
2022-12-22T07:17:06.435Z,21.65
2022-12-22T07:18:10.569Z,21.65
2022-12-22T07:19:14.706Z,21.65
2022-12-22T07:20:18.804Z,21.63
2022-12-22T07:21:22.911Z,21.61
2022-12-22T07:22:30.179Z,21.61
2022-12-22T07:23:35.015Z,21.61
2022-12-22T07:24:39.161Z,21.6
2022-12-22T07:25:43.266Z,21.6
2022-12-22T07:26:47.370Z,21.6
2022-12-22T07:27:51.486Z,21.59
2022-12-22T07:28:55.633Z,21.58
2022-12-22T07:29:59.738Z,21.58
2022-12-22T07:31:03.928Z,21.55
2022-12-22T07:32:08.202Z,21.54
2022-12-22T07:33:12.309Z,21.53
2022-12-22T07:34:16.447Z,21.52
2022-12-22T07:35:20.561Z,21.5
2022-12-22T07:36:24.659Z,21.5
2022-12-22T07:37:28.750Z,21.5
2022-12-22T07:38:32.871Z,21.49
2022-12-22T07:39:36.970Z,21.48
2022-12-22T07:40:42.208Z,21.5
2022-12-22T07:41:54.598Z,21.49
2022-12-22T07:42:58.709Z,21.47
2022-12-22T07:44:02.808Z,21.48
2022-12-22T07:45:06.945Z,21.48
2022-12-22T07:46:11.112Z,21.48
2022-12-22T07:47:15.394Z,21.46
2022-12-22T07:48:19.504Z,21.46
2022-12-22T07:49:23.622Z,21.46
2022-12-22T07:50:27.775Z,21.45
2022-12-22T07:51:31.938Z,21.43
2022-12-22T07:52:36.039Z,21.44
2022-12-22T07:53:40.190Z,21.43
2022-12-22T07:54:44.291Z,21.42
2022-12-22T07:55:48.428Z,21.4
2022-12-22T07:56:52.556Z,21.39
2022-12-22T07:57:56.677Z,21.41
2022-12-22T07:59:00.820Z,21.41
2022-12-22T08:00:04.940Z,21.41
2022-12-22T08:01:09.052Z,21.39
2022-12-22T08:02:13.392Z,21.39
2022-12-22T08:03:18.025Z,21.37
2022-12-22T08:04:22.785Z,21.38
2022-12-22T08:05:27.187Z,21.37
2022-12-22T08:06:31.435Z,21.35
2022-12-22T08:07:35.567Z,21.37
2022-12-22T08:08:39.671Z,21.35
2022-12-22T08:09:43.778Z,21.34
2022-12-22T08:10:47.912Z,21.34
2022-12-22T08:11:52.057Z,21.33
2022-12-22T08:12:56.215Z,21.33
2022-12-22T08:14:01.742Z,21.33
2022-12-22T08:15:06.243Z,21.33
2022-12-22T08:16:10.376Z,21.33
2022-12-22T08:17:14.623Z,21.33
2022-12-22T08:18:18.718Z,21.32
2022-12-22T08:19:22.866Z,21.3
2022-12-22T08:20:26.995Z,21.29
2022-12-22T08:21:32.121Z,21.31
2022-12-22T08:22:36.242Z,21.3
2022-12-22T08:23:40.329Z,21.3
2022-12-22T08:24:44.437Z,21.3
2022-12-22T08:25:48.522Z,21.29
2022-12-22T08:26:52.664Z,21.27
2022-12-22T08:27:56.799Z,21.28
2022-12-22T08:29:00.935Z,21.28
2022-12-22T08:30:05.142Z,21.27
2022-12-22T08:31:09.297Z,21.26
2022-12-22T08:32:13.503Z,21.26
2022-12-22T08:33:17.648Z,21.24
2022-12-22T08:34:21.805Z,21.24
2022-12-22T08:35:25.921Z,21.25
2022-12-22T08:36:30.005Z,21.25
2022-12-22T08:37:34.111Z,21.24
2022-12-22T08:38:38.245Z,21.22
2022-12-22T08:39:42.347Z,21.22
2022-12-22T08:40:46.497Z,21.23
2022-12-22T08:41:50.578Z,21.22
2022-12-22T08:42:55.097Z,21.23
2022-12-22T08:43:59.243Z,21.13
2022-12-22T08:45:03.378Z,21.15
2022-12-22T08:46:07.497Z,21.17
2022-12-22T08:47:16.794Z,21.19
2022-12-22T08:48:21.496Z,21.19
2022-12-22T08:49:25.632Z,21.2
2022-12-22T08:50:29.795Z,21.19
2022-12-22T08:51:33.982Z,21.17
2022-12-22T08:52:38.132Z,21.16
2022-12-22T08:55:16.406Z,21.17
2022-12-22T08:56:20.530Z,21.19
2022-12-22T08:57:24.633Z,21.17
2022-12-22T08:58:28.783Z,21.17
2022-12-22T08:59:32.889Z,21.16
2022-12-22T09:00:37.028Z,21.15
2022-12-22T09:01:41.480Z,21.13
2022-12-22T09:02:46.378Z,21.16
2022-12-22T09:03:50.858Z,21.14
2022-12-22T09:04:55.005Z,21.15
2022-12-22T09:05:59.127Z,21.15
2022-12-22T09:07:03.290Z,21.15
2022-12-22T09:08:07.380Z,21.14
2022-12-22T09:09:11.519Z,21.14
2022-12-22T09:10:15.687Z,21.13
2022-12-22T09:11:19.831Z,21.13
2022-12-22T09:12:23.946Z,21.13
2022-12-22T09:13:28.065Z,21.13
2022-12-22T09:14:32.166Z,21.11
2022-12-22T09:15:36.310Z,21.12
2022-12-22T09:16:40.616Z,21.11
2022-12-22T09:17:45.004Z,21.1
2022-12-22T09:18:49.136Z,21.1
2022-12-22T09:19:53.300Z,21.09
2022-12-22T09:20:57.428Z,21.09
2022-12-22T09:22:01.545Z,21.1
2022-12-22T09:23:05.656Z,21.08
2022-12-22T09:24:09.854Z,21.08
2022-12-22T09:25:13.954Z,21.1
2022-12-22T09:26:18.067Z,21.09
2022-12-22T09:27:22.174Z,21.09
2022-12-22T09:28:26.263Z,21.09
2022-12-22T09:29:31.270Z,21.08
2022-12-22T09:30:35.431Z,21.06
2022-12-22T09:31:39.587Z,21.07
2022-12-22T09:32:44.027Z,21.07
2022-12-22T09:33:48.123Z,21.07
2022-12-22T09:34:52.327Z,21.06
2022-12-22T09:35:56.436Z,21.06
2022-12-22T09:37:00.560Z,21.04
2022-12-22T09:38:04.688Z,21.04
2022-12-22T09:39:08.795Z,21.05
2022-12-22T09:40:12.927Z,21.04
2022-12-22T09:41:17.031Z,21.04
2022-12-22T09:42:21.157Z,21.04
2022-12-22T09:43:25.259Z,21.05
2022-12-22T09:44:29.348Z,21.06
2022-12-22T09:45:33.447Z,21.05
2022-12-22T09:46:37.775Z,21.04
2022-12-22T09:47:41.860Z,21.04
2022-12-22T09:48:45.996Z,21.04
2022-12-22T09:49:50.110Z,21.02
2022-12-22T09:50:54.262Z,21.05
2022-12-22T09:51:58.410Z,21.03
2022-12-22T09:53:02.622Z,21.05
2022-12-22T09:54:06.779Z,21.06
2022-12-22T09:55:10.907Z,21.08
2022-12-22T09:56:15.049Z,21.07
2022-12-22T09:57:19.165Z,21.06
2022-12-22T09:58:26.363Z,21.08
2022-12-22T09:59:30.797Z,21.08
2022-12-22T10:00:34.914Z,21.07
2022-12-22T10:01:39.184Z,21.08
2022-12-22T10:02:43.947Z,21.05
2022-12-22T10:03:48.773Z,21.06
2022-12-22T10:05:02.625Z,21.06
2022-12-22T10:06:06.738Z,21.03
2022-12-22T10:07:10.834Z,21.04
2022-12-22T10:08:14.961Z,21.04
2022-12-22T10:09:45.957Z,21.04
2022-12-22T10:10:54.793Z,21.02
2022-12-22T10:11:58.924Z,21.04
2022-12-22T10:13:03.036Z,21.03
2022-12-22T10:14:07.150Z,21.01
2022-12-22T10:15:14.221Z,21.03
2022-12-22T10:16:25.312Z,21.03
2022-12-22T10:17:29.636Z,21.01
2022-12-22T10:18:33.799Z,21.02
2022-12-22T10:19:37.902Z,21.01
2022-12-22T10:20:42.547Z,21.02
2022-12-22T10:21:47.324Z,21
2022-12-22T10:22:51.459Z,21.02
2022-12-22T10:23:55.627Z,21.01
2022-12-22T10:24:59.756Z,20.99
2022-12-22T10:27:42.066Z,20.99
2022-12-22T10:28:54.579Z,20.98
2022-12-22T10:29:58.697Z,20.98
2022-12-22T10:31:02.795Z,20.99
2022-12-22T10:32:06.953Z,20.98
2022-12-22T10:33:11.392Z,20.97
2022-12-22T10:34:15.472Z,20.98
2022-12-22T10:35:19.592Z,20.97
2022-12-22T10:36:23.690Z,20.98
2022-12-22T10:37:29.343Z,20.99
2022-12-22T10:38:35.129Z,20.98
2022-12-22T10:39:39.254Z,20.98
2022-12-22T10:40:43.371Z,20.97
2022-12-22T10:41:47.519Z,20.96
2022-12-22T10:42:51.672Z,20.97
2022-12-22T10:43:55.839Z,20.98
2022-12-22T10:44:59.974Z,20.97
2022-12-22T10:46:04.192Z,20.99
2022-12-22T10:47:12.240Z,21
2022-12-22T10:48:21.447Z,20.97
2022-12-22T10:49:25.573Z,20.98
2022-12-22T10:50:29.696Z,21
2022-12-22T10:51:33.801Z,21
2022-12-22T10:52:37.909Z,21
2022-12-22T10:53:42.002Z,20.99
2022-12-22T10:54:46.195Z,20.99
2022-12-22T10:55:50.325Z,21.01
2022-12-22T10:56:54.433Z,21
2022-12-22T10:58:03.638Z,21.01
2022-12-22T10:59:09.479Z,21.02
2022-12-22T11:00:13.559Z,21.02
2022-12-22T11:01:17.760Z,21.01
2022-12-22T11:02:22.342Z,21
2022-12-22T11:03:27.368Z,21.02
2022-12-22T11:04:31.956Z,21.01
2022-12-22T11:05:36.065Z,21.02
2022-12-22T11:06:40.189Z,21
2022-12-22T11:07:44.317Z,21.02
2022-12-22T11:08:51.382Z,21.01
2022-12-22T11:09:55.952Z,21.01
2022-12-22T11:11:00.102Z,20.99
2022-12-22T11:12:04.221Z,21.01
2022-12-22T11:13:08.351Z,21
2022-12-22T11:14:12.456Z,21.01
2022-12-22T11:15:22.099Z,21.01
2022-12-22T11:16:28.384Z,21.03
2022-12-22T11:17:32.692Z,21
2022-12-22T11:18:36.813Z,21.03
2022-12-22T11:19:40.956Z,21.06
2022-12-22T11:20:45.068Z,21.07
2022-12-22T11:21:49.174Z,21.11
2022-12-22T11:22:53.295Z,21.16
2022-12-22T11:23:57.413Z,21.21
2022-12-22T11:25:01.511Z,21.21
2022-12-22T11:26:05.658Z,21.29
2022-12-22T11:27:09.781Z,21.33
2022-12-22T11:28:13.916Z,21.38
2022-12-22T11:29:18.034Z,21.41
2022-12-22T11:30:22.157Z,21.43
2022-12-22T11:31:26.414Z,21.46
2022-12-22T11:32:30.914Z,21.48
2022-12-22T11:33:35.031Z,21.49
2022-12-22T11:34:39.205Z,21.48
2022-12-22T11:35:43.335Z,21.57
2022-12-22T11:36:47.460Z,21.58
2022-12-22T11:37:51.569Z,21.57
2022-12-22T11:38:55.699Z,21.59
2022-12-22T11:39:59.897Z,21.6
2022-12-22T11:41:04.006Z,21.59
2022-12-22T11:42:08.153Z,21.61
2022-12-22T11:43:12.271Z,21.64
2022-12-22T11:44:16.393Z,21.62
2022-12-22T11:45:20.643Z,21.59
2022-12-22T11:46:25.070Z,21.57
2022-12-22T11:47:29.690Z,21.58
2022-12-22T11:48:34.073Z,21.59
2022-12-22T11:49:38.439Z,21.61
2022-12-22T11:51:00.431Z,21.65
2022-12-22T11:52:17.290Z,21.69
2022-12-22T11:53:21.673Z,21.73
2022-12-22T11:54:26.052Z,21.76
2022-12-22T11:55:30.987Z,21.78
2022-12-22T11:56:35.943Z,21.84
2022-12-22T11:57:40.344Z,21.87
2022-12-22T11:58:45.380Z,21.87
2022-12-22T11:59:49.847Z,21.89
2022-12-22T12:01:13.935Z,21.86
2022-12-22T12:02:29.296Z,21.9
2022-12-22T12:03:34.406Z,21.89
2022-12-22T12:04:39.278Z,21.85
2022-12-22T12:05:43.684Z,21.84
2022-12-22T12:06:48.112Z,21.83
2022-12-22T12:07:52.634Z,21.86
2022-12-22T12:08:57.052Z,21.82
2022-12-22T12:10:01.480Z,21.81
2022-12-22T12:11:05.972Z,21.8
2022-12-22T12:12:10.400Z,21.82
2022-12-22T12:13:18.054Z,21.82
2022-12-22T12:14:39.199Z,21.82
2022-12-22T12:15:43.576Z,21.86
2022-12-22T12:16:48.107Z,21.88
2022-12-22T12:17:52.592Z,21.89
2022-12-22T12:18:57.134Z,21.9
2022-12-22T12:20:01.474Z,21.89
2022-12-22T12:21:05.984Z,21.91
2022-12-22T12:22:10.420Z,21.91
2022-12-22T12:23:14.919Z,21.88
2022-12-22T12:24:19.353Z,21.84
2022-12-22T12:25:25.932Z,21.86
2022-12-22T12:26:30.535Z,21.87
2022-12-22T12:27:34.997Z,21.84
2022-12-22T12:28:39.435Z,21.83
2022-12-22T12:29:43.882Z,21.79
2022-12-22T12:31:17.312Z,21.76
2022-12-22T12:32:29.648Z,21.75
2022-12-22T12:33:34.052Z,21.77
2022-12-22T12:34:38.444Z,21.78
2022-12-22T12:35:42.885Z,21.68
2022-12-22T12:36:47.327Z,21.8
2022-12-22T12:37:51.609Z,21.79
2022-12-22T12:39:07.216Z,21.81
2022-12-22T12:40:13.038Z,21.84
2022-12-22T12:41:17.362Z,21.85
2022-12-22T12:42:21.477Z,21.89
2022-12-22T12:43:25.587Z,21.86
2022-12-22T12:44:29.743Z,21.88
2022-12-22T12:45:34.106Z,21.86
2022-12-22T12:46:38.274Z,21.85
2022-12-22T12:47:42.624Z,21.85
2022-12-22T12:48:46.755Z,21.87
2022-12-22T12:49:50.906Z,21.85
2022-12-22T12:50:55.025Z,21.84
2022-12-22T12:51:59.180Z,21.8
2022-12-22T12:53:03.333Z,21.8
2022-12-22T12:54:07.446Z,21.79
2022-12-22T12:55:15.674Z,21.79
2022-12-22T12:56:33.586Z,21.77
2022-12-22T12:57:37.711Z,21.77
2022-12-22T12:58:41.805Z,21.74
2022-12-22T12:59:45.920Z,21.72
2022-12-22T13:00:55.433Z,21.73
2022-12-22T13:02:02.627Z,21.7
2022-12-22T13:03:07.316Z,21.7
2022-12-22T13:04:22.234Z,21.69
2022-12-22T13:05:26.894Z,21.67
2022-12-22T13:06:31.085Z,21.69
2022-12-22T13:07:35.232Z,21.68
2022-12-22T13:08:39.353Z,21.66
2022-12-22T13:09:51.664Z,21.66
2022-12-22T13:10:55.983Z,21.65
2022-12-22T13:12:19.730Z,21.62
2022-12-22T13:13:28.113Z,21.63
2022-12-22T13:14:32.290Z,21.63
2022-12-22T13:15:36.651Z,21.61
2022-12-22T13:16:41.270Z,21.58
2022-12-22T13:17:45.712Z,21.59
2022-12-22T13:18:50.766Z,21.57
2022-12-22T13:19:56.039Z,21.58
2022-12-22T13:21:19.121Z,21.57
2022-12-22T13:23:08.265Z,21.54
2022-12-22T13:24:24.497Z,21.52
2022-12-22T13:25:32.006Z,21.54
2022-12-22T13:26:36.139Z,21.5
2022-12-22T13:27:40.250Z,21.51
2022-12-22T13:28:44.337Z,21.48
2022-12-22T13:29:48.961Z,21.49
2022-12-22T13:30:53.085Z,21.46
2022-12-22T13:31:57.249Z,21.45
2022-12-22T13:33:01.723Z,21.46
2022-12-22T13:34:05.900Z,21.44
2022-12-22T13:36:57.154Z,21.43
2022-12-22T13:38:01.294Z,21.44
2022-12-22T13:39:05.463Z,21.44
2022-12-22T13:40:09.794Z,21.45
2022-12-22T13:41:13.922Z,21.44
2022-12-22T13:42:23.660Z,21.44
2022-12-22T13:43:28.267Z,21.41
2022-12-22T13:44:32.394Z,21.41
2022-12-22T13:45:36.513Z,21.41
2022-12-22T13:46:40.739Z,21.42
2022-12-22T13:47:45.060Z,21.43
2022-12-22T13:48:49.183Z,21.4
2022-12-22T13:50:08.191Z,21.4
2022-12-22T13:51:13.496Z,21.4
2022-12-22T13:52:17.658Z,21.4
2022-12-22T13:53:49.795Z,21.4
2022-12-22T13:55:14.820Z,21.39
2022-12-22T13:56:18.988Z,21.39
2022-12-22T13:57:23.105Z,21.37
2022-12-22T13:58:27.205Z,21.39
2022-12-22T13:59:31.313Z,21.36
2022-12-22T14:00:35.441Z,21.39
2022-12-22T14:01:39.982Z,21.38
2022-12-22T14:02:45.087Z,21.36
2022-12-22T14:03:59.893Z,21.37
2022-12-22T14:05:07.100Z,21.35
2022-12-22T14:06:11.222Z,21.37
2022-12-22T14:07:15.352Z,21.35
2022-12-22T14:08:19.488Z,21.34
2022-12-22T14:09:23.597Z,21.36
2022-12-22T14:10:27.684Z,21.35
2022-12-22T14:11:31.814Z,21.36
2022-12-22T14:12:35.913Z,21.35
2022-12-22T14:13:40.033Z,21.34
2022-12-22T14:14:44.159Z,21.32
2022-12-22T14:15:48.315Z,21.33
2022-12-22T14:16:52.517Z,21.33
2022-12-22T14:17:57.018Z,21.3
2022-12-22T14:19:01.160Z,21.32
2022-12-22T14:20:05.267Z,21.31
2022-12-22T14:21:09.427Z,21.29
2022-12-22T14:22:13.548Z,21.31
2022-12-22T14:23:17.672Z,21.31
2022-12-22T14:24:21.776Z,21.31
2022-12-22T14:25:25.890Z,21.29
2022-12-22T14:26:29.992Z,21.29
2022-12-22T14:27:34.087Z,21.29
2022-12-22T14:28:38.179Z,21.31
2022-12-22T14:29:42.377Z,21.32
2022-12-22T14:30:46.514Z,21.31
2022-12-22T14:31:50.684Z,21.29
2022-12-22T14:32:55.771Z,21.31
2022-12-22T14:34:00.217Z,21.3
2022-12-22T14:35:04.344Z,21.31
2022-12-22T14:36:08.561Z,21.31
2022-12-22T14:37:12.680Z,21.29
2022-12-22T14:38:16.835Z,21.3
2022-12-22T14:39:20.959Z,21.29
2022-12-22T14:40:25.078Z,21.3
2022-12-22T14:41:29.190Z,21.27
2022-12-22T14:42:33.291Z,21.29
2022-12-22T14:43:37.445Z,21.28
2022-12-22T14:44:41.561Z,21.27
2022-12-22T14:45:45.807Z,21.28
2022-12-22T14:46:50.140Z,21.27
2022-12-22T14:47:54.248Z,21.26
2022-12-22T14:48:58.377Z,21.24
2022-12-22T14:50:02.532Z,21.24
2022-12-22T14:51:06.946Z,21.25
2022-12-22T14:52:11.077Z,21.24
2022-12-22T14:53:15.200Z,21.23
2022-12-22T14:54:19.318Z,21.24
2022-12-22T14:55:23.436Z,21.23
2022-12-22T14:56:27.549Z,21.23
2022-12-22T14:57:31.632Z,21.22
2022-12-22T14:58:35.781Z,21.2
2022-12-22T14:59:39.922Z,21.21
2022-12-22T15:00:44.053Z,21.21
2022-12-22T15:01:48.587Z,21.19
2022-12-22T15:02:53.353Z,21.18
2022-12-22T15:03:57.947Z,21.18
2022-12-22T15:05:02.358Z,21.19
2022-12-22T15:06:06.461Z,21.19
2022-12-22T15:07:24.254Z,21.18
2022-12-22T15:09:10.770Z,21.18
2022-12-22T15:10:16.569Z,21.17
2022-12-22T15:11:22.081Z,21.15
2022-12-22T15:12:26.196Z,21.16
2022-12-22T15:13:30.315Z,21.16
2022-12-22T15:14:38.603Z,21.14
2022-12-22T15:15:42.981Z,21.13
2022-12-22T15:16:47.221Z,21.16
2022-12-22T15:17:51.593Z,21.09
2022-12-22T15:18:55.726Z,21.14
2022-12-22T15:19:59.919Z,21.12
2022-12-22T15:21:04.168Z,21.12
2022-12-22T15:22:08.451Z,21.13
2022-12-22T15:23:12.596Z,21.12
2022-12-22T15:24:16.969Z,21.12
2022-12-22T15:25:21.052Z,21.11
2022-12-22T15:26:25.163Z,21.09
2022-12-22T15:27:29.269Z,21.1
2022-12-22T15:28:33.403Z,21.09
2022-12-22T15:29:37.511Z,21.1
2022-12-22T15:30:41.645Z,21.07
2022-12-22T15:31:46.014Z,21.09
2022-12-22T15:32:50.116Z,21.08
2022-12-22T15:33:54.264Z,21.08
2022-12-22T15:34:58.368Z,21.06
2022-12-22T15:36:02.466Z,21.07
2022-12-22T15:37:06.576Z,21.07
2022-12-22T15:38:10.720Z,21.07
2022-12-22T15:39:14.844Z,21.06
2022-12-22T15:40:18.984Z,21.05
2022-12-22T15:41:23.234Z,21.06
2022-12-22T15:42:27.352Z,21.03
2022-12-22T15:43:59.585Z,21.05
2022-12-22T15:45:03.826Z,21.04
2022-12-22T15:46:08.036Z,21.02
2022-12-22T15:47:12.338Z,21.03
2022-12-22T15:48:16.425Z,21.03
2022-12-22T15:49:20.538Z,21.03
2022-12-22T15:50:24.643Z,21.02
2022-12-22T15:51:28.735Z,21.02
2022-12-22T15:52:32.885Z,21.03
2022-12-22T15:53:37.009Z,21
2022-12-22T15:54:41.146Z,21.02
2022-12-22T15:55:45.980Z,21.01
2022-12-22T15:56:50.092Z,20.99
2022-12-22T15:57:54.214Z,21
2022-12-22T15:58:58.324Z,21.01
2022-12-22T16:00:02.445Z,20.98
2022-12-22T16:01:06.591Z,20.98
2022-12-22T16:02:11.015Z,20.98
2022-12-22T16:03:16.461Z,20.98
2022-12-22T16:04:21.029Z,20.98
2022-12-22T16:05:25.130Z,20.96
2022-12-22T16:06:29.269Z,20.98
2022-12-22T16:07:33.388Z,20.96
2022-12-22T16:08:37.497Z,20.98
2022-12-22T16:09:41.654Z,20.97
2022-12-22T16:10:45.767Z,20.94
2022-12-22T16:11:49.878Z,20.96
2022-12-22T16:12:53.982Z,20.94
2022-12-22T16:13:58.128Z,20.96
2022-12-22T16:15:02.280Z,20.96
2022-12-22T16:16:06.479Z,20.95
2022-12-22T16:17:10.981Z,20.94
2022-12-22T16:18:15.098Z,20.94
2022-12-22T16:19:19.407Z,20.93
2022-12-22T16:20:23.551Z,20.91
2022-12-22T16:21:27.733Z,20.93
2022-12-22T16:22:31.850Z,20.92
2022-12-22T16:23:35.934Z,20.9
2022-12-22T16:24:40.026Z,20.92
2022-12-22T16:25:44.138Z,20.91
2022-12-22T16:26:48.252Z,20.9
2022-12-22T16:27:52.372Z,20.91
2022-12-22T16:28:56.516Z,20.9
2022-12-22T16:30:00.739Z,20.9
2022-12-22T16:31:04.854Z,20.87
2022-12-22T16:32:13.705Z,20.87
2022-12-22T16:33:21.642Z,20.89
2022-12-22T16:34:25.760Z,20.87
2022-12-22T16:35:29.863Z,20.89
2022-12-22T16:36:33.957Z,20.89
2022-12-22T16:37:38.069Z,20.88
2022-12-22T16:38:42.208Z,20.87
2022-12-22T16:39:46.368Z,20.88
2022-12-22T16:40:50.537Z,20.87
2022-12-22T16:41:59.795Z,20.88
2022-12-22T16:45:00.593Z,20.87
2022-12-22T16:46:04.793Z,20.85
2022-12-22T16:47:09.138Z,20.84
2022-12-22T16:48:13.279Z,20.86
2022-12-22T16:49:21.540Z,20.84
2022-12-22T16:50:30.301Z,20.83
2022-12-22T16:51:34.662Z,20.83
2022-12-22T16:52:38.823Z,20.83
2022-12-22T16:53:42.922Z,20.85
2022-12-22T16:54:52.357Z,20.83
2022-12-22T16:55:56.669Z,20.82
2022-12-22T16:57:00.791Z,20.84
2022-12-22T16:58:12.801Z,20.84
2022-12-22T16:59:17.611Z,20.82
2022-12-22T17:00:21.717Z,20.81
2022-12-22T17:01:25.891Z,20.83
2022-12-22T17:02:30.716Z,20.82
2022-12-22T17:03:35.484Z,20.82
2022-12-22T17:04:39.989Z,20.82
2022-12-22T17:05:45.085Z,20.81
2022-12-22T17:06:50.278Z,20.8
2022-12-22T17:07:54.410Z,20.81
2022-12-22T17:08:58.560Z,20.83
2022-12-22T17:10:02.666Z,20.83
2022-12-22T17:11:10.717Z,20.83
2022-12-22T17:12:14.978Z,20.84
2022-12-22T17:13:19.108Z,20.85
2022-12-22T17:14:23.233Z,20.88
2022-12-22T17:15:27.356Z,20.88
2022-12-22T17:16:31.650Z,20.92
2022-12-22T17:17:41.880Z,20.96
2022-12-22T17:18:46.422Z,21.01
2022-12-22T17:19:50.541Z,21.04
2022-12-22T17:20:54.661Z,21.07
2022-12-22T17:21:58.776Z,21.08
2022-12-22T17:23:02.894Z,21.11
2022-12-22T17:24:07.004Z,21.11
2022-12-22T17:25:11.112Z,21.14
2022-12-22T17:26:15.209Z,21.17
2022-12-22T17:27:19.311Z,21.17
2022-12-22T17:28:23.426Z,21.17
2022-12-22T17:29:27.532Z,21.15
2022-12-22T17:30:31.657Z,21.12